createdAt,value
2017-09-23T00:00:59.657Z,20.80
2017-09-23T00:03:27.348Z,18.83
2017-09-23T00:05:54.976Z,22.53
2017-09-23T00:08:22.613Z,19.57
2017-09-23T00:10:50.259Z,19.33
2017-09-23T00:13:18.647Z,15.93
2017-09-23T00:15:46.309Z,17.20
2017-09-23T00:18:13.923Z,20.47
2017-09-23T00:20:41.565Z,19.17
2017-09-23T00:23:09.209Z,31.37
2017-09-23T00:25:37.614Z,23.97
2017-09-23T00:28:05.288Z,24.53
2017-09-23T00:30:33.036Z,19.67
2017-09-23T00:33:00.668Z,24.77
2017-09-23T00:35:28.336Z,18.33
2017-09-23T00:37:55.991Z,22.30
2017-09-23T00:40:23.672Z,22.60
2017-09-23T00:42:51.322Z,16.83
2017-09-23T00:45:18.990Z,21.33
2017-09-23T00:47:46.592Z,22.60
2017-09-23T00:50:14.247Z,18.53
2017-09-23T00:52:41.876Z,23.03
2017-09-23T00:55:09.514Z,16.33
2017-09-23T00:57:37.168Z,15.70
2017-09-23T01:00:05.566Z,21.70
2017-09-23T01:02:33.188Z,17.70
2017-09-23T01:05:00.822Z,22.73
2017-09-23T01:07:28.473Z,16.40
2017-09-23T01:09:56.100Z,18.77
2017-09-23T01:12:24.454Z,18.27
2017-09-23T01:14:52.085Z,19.03
2017-09-23T01:17:19.764Z,28.97
2017-09-23T01:19:47.377Z,20.07
2017-09-23T01:22:14.995Z,25.17
2017-09-23T01:24:42.646Z,23.17
2017-09-23T01:27:10.312Z,21.67
2017-09-23T01:29:37.989Z,20.80
2017-09-23T01:32:05.654Z,21.90
2017-09-23T01:34:33.268Z,19.40
2017-09-23T01:37:02.444Z,18.90
2017-09-23T01:39:30.105Z,20.80
2017-09-23T01:41:57.746Z,16.90
2017-09-23T01:44:26.162Z,21.20
2017-09-23T01:46:53.781Z,18.67
2017-09-23T01:49:21.420Z,19.70
2017-09-23T01:51:49.076Z,19.13
2017-09-23T01:54:16.714Z,18.97
2017-09-23T01:56:44.342Z,16.40
2017-09-23T01:59:12.968Z,17.53
2017-09-23T02:01:41.368Z,21.50
2017-09-23T02:04:09.001Z,18.97
2017-09-23T02:06:36.606Z,18.43
2017-09-23T02:09:04.258Z,24.13
2017-09-23T02:11:31.913Z,20.33
2017-09-23T02:13:59.586Z,20.40
2017-09-23T02:16:27.217Z,23.20
2017-09-23T02:18:54.828Z,24.03
2017-09-23T02:21:23.262Z,24.70
2017-09-23T02:23:50.901Z,20.67
2017-09-23T02:26:18.547Z,20.20
2017-09-23T02:28:46.177Z,30.30
2017-09-23T02:31:13.785Z,18.83
2017-09-23T02:33:41.426Z,23.20
2017-09-23T02:36:09.069Z,23.03
2017-09-23T02:38:36.723Z,22.43
2017-09-23T02:41:04.364Z,20.10
2017-09-23T02:43:31.997Z,21.30
2017-09-23T02:45:59.601Z,19.33
2017-09-23T02:48:27.250Z,20.43
2017-09-23T02:50:55.849Z,21.20
2017-09-23T02:53:23.485Z,20.50
2017-09-23T02:55:51.108Z,23.93
2017-09-23T02:58:18.733Z,18.90
2017-09-23T03:00:46.378Z,20.43
2017-09-23T03:03:14.099Z,17.10
2017-09-23T03:12:28.020Z,19.67
2017-09-23T03:15:09.118Z,22.60
2017-09-23T03:17:40.642Z,25.20
2017-09-23T03:20:16.740Z,21.87
2017-09-23T03:22:44.385Z,27.03
2017-09-23T03:25:12.773Z,18.77
2017-09-23T03:27:41.177Z,27.90
2017-09-23T03:30:16.585Z,22.10
2017-09-23T03:32:52.147Z,26.20
2017-09-23T03:35:19.749Z,24.43
2017-09-23T03:37:47.357Z,23.57
2017-09-23T03:40:15.014Z,22.90
2017-09-23T03:42:42.637Z,22.40
2017-09-23T03:45:10.263Z,23.07
2017-09-23T03:47:38.649Z,23.63
2017-09-23T03:50:07.036Z,20.90
2017-09-23T03:52:34.660Z,23.03
2017-09-23T03:55:02.266Z,21.47
2017-09-23T03:57:29.880Z,22.70
2017-09-23T03:59:57.505Z,23.03
2017-09-23T04:02:25.149Z,32.47
2017-09-23T04:04:52.769Z,26.43
2017-09-23T04:07:20.401Z,16.83
2017-09-23T04:09:48.028Z,17.60
2017-09-23T04:12:15.664Z,21.40
2017-09-23T04:14:43.269Z,20.83
2017-09-23T04:17:10.893Z,21.30
2017-09-23T04:19:39.293Z,24.00
2017-09-23T04:22:06.928Z,19.60
2017-09-23T04:24:34.549Z,17.77
2017-09-23T04:27:02.180Z,21.10
2017-09-23T04:29:29.809Z,25.10
2017-09-23T04:31:57.382Z,17.60
2017-09-23T04:34:25.729Z,16.40
2017-09-23T04:36:53.301Z,19.80
2017-09-23T04:39:20.886Z,19.03
2017-09-23T04:41:49.229Z,18.60
2017-09-23T04:44:16.813Z,19.23
2017-09-23T04:46:44.374Z,18.07
2017-09-23T04:49:11.920Z,15.90
2017-09-23T04:51:39.503Z,18.37
2017-09-23T04:54:07.833Z,18.13
2017-09-23T04:56:35.406Z,17.87
2017-09-23T04:59:02.961Z,18.23
2017-09-23T05:01:30.546Z,21.30
2017-09-23T05:03:58.101Z,18.10
2017-09-23T05:06:25.640Z,24.80
2017-09-23T05:08:53.229Z,22.97
2017-09-23T05:11:20.804Z,22.90
2017-09-23T05:13:49.117Z,20.50
2017-09-23T05:16:17.738Z,25.77
2017-09-23T05:18:45.322Z,22.10
2017-09-23T05:21:13.662Z,28.37
2017-09-23T05:23:41.234Z,20.53
2017-09-23T05:26:08.847Z,28.27
2017-09-23T05:28:36.420Z,21.30
2017-09-23T05:31:03.997Z,18.73
2017-09-23T05:33:31.559Z,27.27
2017-09-23T05:35:59.119Z,22.07
2017-09-23T05:38:26.698Z,20.53
2017-09-23T05:40:54.267Z,23.20
2017-09-23T05:43:21.816Z,18.20
2017-09-23T05:45:49.402Z,18.57
2017-09-23T05:48:17.728Z,21.13
2017-09-23T05:50:45.298Z,20.27
2017-09-23T05:53:12.878Z,19.50
2017-09-23T05:55:40.459Z,18.50
2017-09-23T05:58:08.794Z,24.07
2017-09-23T06:00:36.352Z,21.17
2017-09-23T06:03:03.949Z,19.53
2017-09-23T06:05:31.502Z,25.73
2017-09-23T06:07:59.094Z,22.40
2017-09-23T06:10:26.673Z,20.50
2017-09-23T06:12:54.254Z,20.77
2017-09-23T06:15:21.806Z,21.10
2017-09-23T06:17:49.387Z,22.63
2017-09-23T06:20:16.933Z,23.07
2017-09-23T06:22:44.499Z,26.87
2017-09-23T06:25:12.086Z,21.73
2017-09-23T06:27:39.671Z,20.53
2017-09-23T06:30:07.267Z,20.20
2017-09-23T06:32:34.848Z,22.13
2017-09-23T06:35:02.437Z,24.10
2017-09-23T06:37:30.798Z,21.80
2017-09-23T06:39:58.359Z,23.40
2017-09-23T06:42:25.953Z,18.73
2017-09-23T06:44:53.513Z,21.13
2017-09-23T06:47:21.088Z,19.97
2017-09-23T06:49:48.641Z,17.10
2017-09-23T06:52:16.218Z,18.50
2017-09-23T06:54:43.771Z,21.63
2017-09-23T06:57:11.340Z,17.83
2017-09-23T06:59:38.923Z,21.30
2017-09-23T07:02:06.497Z,27.63
2017-09-23T07:04:34.063Z,27.17
2017-09-23T07:07:01.672Z,33.90
2017-09-23T07:09:29.262Z,19.37
2017-09-23T07:11:56.840Z,20.00
2017-09-23T07:14:24.414Z,20.70
2017-09-23T07:16:52.752Z,20.77
2017-09-23T07:19:20.341Z,18.10
2017-09-23T07:21:47.935Z,20.07
2017-09-23T07:24:16.242Z,21.00
2017-09-23T07:26:43.856Z,18.40
2017-09-23T07:29:12.174Z,24.00
2017-09-23T07:31:39.768Z,19.60
2017-09-23T07:34:07.349Z,18.80
2017-09-23T07:36:34.898Z,19.90
2017-09-23T07:39:02.479Z,22.60
2017-09-23T07:41:30.805Z,28.63
2017-09-23T07:43:58.428Z,31.87
2017-09-23T07:46:26.027Z,19.97
2017-09-23T07:48:53.586Z,23.83
2017-09-23T07:51:21.140Z,23.13
2017-09-23T07:53:48.710Z,23.87
2017-09-23T07:56:16.299Z,31.03
2017-09-23T07:58:43.854Z,29.80
2017-09-23T08:01:11.433Z,27.00
2017-09-23T08:03:39.769Z,30.93
2017-09-23T08:06:07.349Z,33.83
2017-09-23T08:08:34.914Z,36.87
2017-09-23T08:11:02.469Z,37.70
2017-09-23T08:13:30.074Z,38.43
2017-09-23T08:15:57.634Z,38.63
2017-09-23T08:18:25.214Z,38.93
2017-09-23T08:20:52.811Z,37.37
2017-09-23T08:23:20.369Z,41.50
2017-09-23T08:25:47.955Z,45.73
2017-09-23T08:28:16.377Z,41.43
2017-09-23T08:30:43.954Z,37.70
2017-09-23T08:33:11.548Z,41.23
2017-09-23T08:35:39.130Z,41.67
2017-09-23T08:38:07.450Z,47.20
2017-09-23T08:40:35.071Z,46.17
2017-09-23T08:43:03.413Z,44.03
2017-09-23T08:45:30.999Z,41.17
2017-09-23T08:47:59.329Z,47.10
2017-09-23T08:50:26.920Z,39.97
2017-09-23T08:52:54.543Z,37.93
2017-09-23T08:55:22.447Z,46.33
2017-09-23T08:57:50.070Z,39.67
2017-09-23T09:00:17.653Z,49.67
2017-09-23T09:02:45.239Z,44.10
2017-09-23T09:05:13.669Z,55.47
2017-09-23T09:07:41.261Z,44.30
2017-09-23T09:10:08.857Z,46.97
2017-09-23T09:12:37.199Z,45.07
2017-09-23T09:15:04.808Z,48.67
2017-09-23T09:17:32.383Z,44.47
2017-09-23T09:20:00.318Z,54.90
2017-09-23T09:22:27.927Z,43.00
2017-09-23T09:24:55.523Z,40.97
2017-09-23T09:27:23.083Z,37.93
2017-09-23T09:29:50.675Z,44.93
2017-09-23T09:32:18.275Z,42.07
2017-09-23T09:34:45.851Z,41.20
2017-09-23T09:37:13.442Z,40.60
2017-09-23T09:39:41.790Z,38.73
2017-09-23T09:42:09.381Z,37.97
2017-09-23T09:44:37.722Z,42.23
2017-09-23T09:47:05.293Z,35.80
2017-09-23T09:49:32.854Z,36.47
2017-09-23T09:52:00.414Z,34.10
2017-09-23T09:54:27.999Z,31.20
2017-09-23T09:56:56.339Z,31.00
2017-09-23T09:59:23.922Z,35.70
2017-09-23T10:01:52.271Z,32.87
2017-09-23T10:04:19.861Z,33.93
2017-09-23T10:06:48.194Z,37.23
2017-09-23T10:09:15.797Z,33.93
2017-09-23T10:11:43.397Z,31.60
2017-09-23T10:14:10.967Z,52.60
2017-09-23T10:16:38.557Z,48.30
2017-09-23T10:19:06.113Z,32.37
2017-09-23T10:21:33.722Z,33.30
2017-09-23T10:24:02.111Z,33.90
2017-09-23T10:26:29.691Z,29.53
2017-09-23T10:28:57.280Z,31.53
2017-09-23T10:31:24.878Z,32.43
2017-09-23T10:33:53.235Z,29.07
2017-09-23T10:36:20.960Z,32.80
2017-09-23T10:38:48.522Z,29.83
2017-09-23T10:41:16.095Z,32.40
2017-09-23T10:43:43.670Z,35.50
2017-09-23T10:46:11.269Z,30.50
2017-09-23T10:48:39.598Z,35.40
2017-09-23T10:51:07.155Z,40.00
2017-09-23T10:53:34.721Z,35.03
2017-09-23T10:56:02.307Z,29.97
2017-09-23T10:58:29.852Z,35.23
2017-09-23T11:00:57.408Z,31.27
2017-09-23T11:03:24.989Z,27.93
2017-09-23T11:05:53.326Z,30.37
2017-09-23T11:08:20.918Z,27.93
2017-09-23T11:10:48.539Z,26.20
2017-09-23T11:13:16.090Z,23.60
2017-09-23T11:15:43.672Z,22.80
2017-09-23T11:18:11.263Z,25.83
2017-09-23T11:20:38.838Z,26.20
2017-09-23T11:23:07.170Z,24.53
2017-09-23T11:25:35.460Z,23.60
2017-09-23T11:28:03.026Z,27.27
2017-09-23T11:30:30.602Z,27.00
2017-09-23T11:32:58.158Z,22.87
2017-09-23T11:35:25.750Z,30.10
2017-09-23T11:37:53.349Z,21.17
2017-09-23T11:40:20.954Z,22.53
2017-09-23T11:42:49.312Z,21.17
2017-09-23T11:45:16.865Z,24.93
2017-09-23T11:47:44.448Z,21.60
2017-09-23T11:50:12.018Z,21.23
2017-09-23T11:52:40.336Z,18.37
2017-09-23T11:55:07.926Z,18.57
2017-09-23T11:57:35.521Z,19.17
2017-09-23T12:00:03.889Z,17.53
2017-09-23T12:02:32.237Z,16.90
2017-09-23T12:04:59.809Z,17.10
2017-09-23T12:07:27.382Z,21.03
2017-09-23T12:09:54.954Z,16.90
2017-09-23T12:12:23.301Z,23.70
2017-09-23T12:14:50.894Z,18.23
2017-09-23T12:17:19.241Z,23.10
2017-09-23T12:19:46.834Z,18.30
2017-09-23T12:22:15.210Z,15.97
2017-09-23T12:24:43.531Z,17.37
2017-09-23T12:27:11.134Z,20.87
2017-09-23T12:29:38.712Z,18.90
2017-09-23T12:32:07.071Z,22.47
2017-09-23T12:34:34.636Z,16.37
2017-09-23T12:37:02.203Z,15.10
2017-09-23T12:39:30.530Z,15.87
2017-09-23T12:41:58.132Z,16.80
2017-09-23T12:44:25.701Z,16.13
2017-09-23T12:46:53.275Z,14.73
2017-09-23T12:49:21.639Z,22.07
2017-09-23T12:51:49.216Z,17.90
2017-09-23T12:54:17.569Z,15.00
2017-09-23T12:56:45.152Z,15.03
2017-09-23T12:59:13.610Z,13.33
2017-09-23T13:01:41.158Z,14.40
2017-09-23T13:04:08.743Z,16.13
2017-09-23T13:06:37.102Z,19.87
2017-09-23T13:09:04.719Z,18.27
2017-09-23T13:11:32.297Z,14.70
2017-09-23T13:13:59.885Z,15.20
2017-09-23T13:16:27.452Z,13.30
2017-09-23T13:18:58.277Z,15.80
2017-09-23T13:21:25.899Z,19.47
2017-09-23T13:23:53.499Z,19.03
2017-09-23T13:26:21.061Z,18.57
2017-09-23T13:28:48.648Z,18.23
2017-09-23T13:31:16.975Z,16.03
2017-09-23T13:33:44.570Z,16.33
2017-09-23T13:36:12.117Z,14.90
2017-09-23T13:38:39.709Z,14.07
2017-09-23T13:41:08.053Z,17.57
2017-09-23T13:43:35.698Z,14.17
2017-09-23T13:46:03.281Z,13.37
2017-09-23T13:48:30.862Z,13.30
2017-09-23T13:50:59.248Z,15.83
2017-09-23T13:53:26.858Z,18.13
2017-09-23T13:55:54.452Z,12.00
2017-09-23T13:58:22.007Z,12.00
2017-09-23T14:00:49.607Z,11.50
2017-09-23T14:03:17.168Z,12.53
2017-09-23T14:05:44.800Z,11.70
2017-09-23T14:08:12.348Z,12.50
2017-09-23T14:10:39.930Z,14.17
2017-09-23T14:13:08.276Z,14.60
2017-09-23T14:15:35.845Z,17.27
2017-09-23T14:18:03.418Z,13.07
2017-09-23T14:20:31.093Z,15.27
2017-09-23T14:22:58.683Z,13.90
2017-09-23T14:25:26.252Z,17.77
2017-09-23T14:27:53.831Z,15.30
2017-09-23T14:30:21.410Z,16.03
2017-09-23T14:32:48.977Z,14.83
2017-09-23T14:35:19.045Z,18.70
2017-09-23T14:37:46.622Z,17.13
2017-09-23T14:40:14.258Z,17.00
2017-09-23T14:42:41.865Z,19.63
2017-09-23T14:45:09.426Z,18.17
2017-09-23T14:47:37.017Z,13.77
2017-09-23T14:50:08.066Z,19.07
2017-09-23T14:55:32.898Z,15.40
2017-09-23T14:58:00.543Z,15.20
2017-09-23T15:00:29.641Z,15.73
2017-09-23T15:02:57.983Z,16.00
2017-09-23T15:05:25.553Z,14.13
2017-09-23T15:07:53.142Z,17.43
2017-09-23T15:10:21.480Z,17.17
2017-09-23T15:12:49.050Z,15.50
2017-09-23T15:15:18.825Z,15.00
2017-09-23T15:17:46.385Z,17.77
2017-09-23T15:20:13.967Z,14.07
2017-09-23T15:22:41.522Z,12.83
2017-09-23T15:25:09.082Z,15.90
2017-09-23T15:27:36.647Z,16.17
2017-09-23T15:30:04.226Z,13.57
2017-09-23T15:32:31.814Z,13.63
2017-09-23T15:35:00.150Z,18.17
2017-09-23T15:37:27.732Z,17.70
2017-09-23T15:39:55.336Z,17.40
2017-09-23T15:42:22.930Z,17.70
2017-09-23T15:44:50.526Z,20.07
2017-09-23T15:47:18.854Z,17.37
2017-09-23T15:49:46.470Z,15.53
2017-09-23T15:52:14.824Z,18.63
2017-09-23T15:54:42.477Z,29.90
2017-09-23T15:57:10.023Z,54.77
2017-09-23T15:59:37.642Z,48.57
2017-09-23T16:02:05.222Z,28.10
2017-09-23T16:04:32.795Z,16.87
2017-09-23T16:07:00.378Z,14.47
2017-09-23T16:09:27.956Z,19.70
2017-09-23T16:11:55.578Z,20.80
2017-09-23T16:14:23.771Z,17.27
2017-09-23T16:16:51.995Z,15.33
2017-09-23T16:19:20.140Z,18.33
2017-09-23T16:21:47.721Z,17.80
2017-09-23T16:24:16.070Z,16.70
2017-09-23T16:26:43.792Z,18.47
2017-09-23T16:29:11.363Z,27.20
2017-09-23T16:31:38.970Z,20.23
2017-09-23T16:34:06.561Z,22.07
2017-09-23T16:36:34.160Z,24.30
2017-09-23T16:39:01.765Z,28.87
2017-09-23T16:41:29.355Z,19.20
2017-09-23T16:43:56.963Z,21.47
2017-09-23T16:46:24.525Z,26.47
2017-09-23T16:48:52.097Z,24.47
2017-09-23T16:51:20.451Z,18.30
2017-09-23T16:53:48.049Z,17.70
2017-09-23T16:56:16.384Z,17.87
2017-09-23T16:58:44.141Z,19.17
2017-09-23T17:01:11.744Z,25.60
2017-09-23T17:03:40.093Z,24.53
2017-09-23T17:06:07.669Z,73.40
2017-09-23T17:08:35.220Z,51.07
2017-09-23T17:11:02.798Z,37.87
2017-09-23T17:13:30.342Z,26.70
2017-09-23T17:15:57.925Z,20.63
2017-09-23T17:18:26.274Z,21.53
2017-09-23T17:20:53.847Z,19.27
2017-09-23T17:23:21.435Z,19.07
2017-09-23T17:25:49.769Z,24.00
2017-09-23T17:28:17.327Z,27.10
2017-09-23T17:30:44.962Z,20.97
2017-09-23T17:33:12.549Z,23.83
2017-09-23T17:35:40.127Z,24.40
2017-09-23T17:41:17.393Z,31.27
2017-09-23T17:43:44.984Z,25.20
2017-09-23T17:46:12.564Z,25.23
2017-09-23T17:48:40.193Z,20.90
2017-09-23T17:51:07.787Z,19.93
2017-09-23T17:53:36.196Z,22.23
2017-09-23T17:56:04.549Z,19.30
2017-09-23T17:58:33.112Z,17.17
2017-09-23T18:01:00.697Z,18.57
2017-09-23T18:03:29.008Z,17.77
2017-09-23T18:05:57.474Z,27.27
2017-09-23T18:08:25.795Z,22.83
2017-09-23T18:10:53.380Z,16.17
2017-09-23T18:13:21.006Z,16.67
2017-09-23T18:15:48.632Z,33.30
2017-09-23T18:18:16.278Z,58.93
2017-09-23T18:20:43.857Z,41.13
2017-09-23T18:23:12.199Z,28.23
2017-09-23T18:25:39.763Z,18.60
2017-09-23T18:28:07.331Z,28.33
2017-09-23T18:30:34.918Z,27.37
2017-09-23T18:33:03.271Z,27.93
2017-09-23T18:35:30.834Z,22.83
2017-09-23T18:37:58.398Z,22.17
2017-09-23T18:40:26.168Z,30.57
2017-09-23T18:42:54.491Z,28.73
2017-09-23T18:45:22.091Z,27.33
2017-09-23T18:47:49.688Z,34.50
2017-09-23T18:50:17.260Z,29.80
2017-09-23T18:52:44.851Z,29.07
2017-09-23T18:55:12.409Z,28.20
2017-09-23T18:57:40.028Z,27.87
2017-09-23T19:00:07.608Z,25.60
2017-09-23T19:02:35.211Z,18.70
2017-09-23T19:05:02.786Z,23.23
2017-09-23T19:07:31.136Z,19.27
2017-09-23T19:09:58.727Z,19.70
2017-09-23T19:12:27.100Z,26.27
2017-09-23T19:14:54.687Z,23.00
2017-09-23T19:17:23.069Z,32.20
2017-09-23T19:19:50.627Z,35.70
2017-09-23T19:22:18.177Z,35.27
2017-09-23T19:24:46.552Z,39.10
2017-09-23T19:27:14.912Z,35.70
2017-09-23T19:29:42.484Z,32.40
2017-09-23T19:32:10.853Z,30.10
2017-09-23T19:34:38.451Z,32.20
2017-09-23T19:37:06.025Z,30.93
2017-09-23T19:39:33.655Z,31.13
2017-09-23T19:42:01.243Z,32.43
2017-09-23T19:44:28.825Z,35.00
2017-09-23T19:46:56.430Z,35.87
2017-09-23T19:49:24.816Z,30.03
2017-09-23T19:51:53.141Z,28.70
2017-09-23T19:54:20.710Z,25.00
2017-09-23T19:56:48.256Z,26.90
2017-09-23T19:59:15.900Z,25.40
2017-09-23T20:01:43.470Z,28.57
2017-09-23T20:04:11.053Z,19.63
2017-09-23T20:06:38.656Z,22.53
2017-09-23T20:09:06.997Z,27.20
2017-09-23T20:11:34.598Z,28.30
2017-09-23T20:14:02.955Z,23.63
2017-09-23T20:16:30.534Z,86.47
2017-09-23T20:18:58.896Z,33.13
2017-09-23T20:21:26.565Z,31.57
2017-09-23T20:23:54.106Z,32.40
2017-09-23T20:26:21.696Z,33.73
2017-09-23T20:28:50.050Z,29.70
2017-09-23T20:31:17.641Z,33.93
2017-09-23T20:33:45.982Z,29.57
2017-09-23T20:36:13.624Z,32.27
2017-09-23T20:38:41.235Z,36.77
2017-09-23T20:41:08.806Z,29.97
2017-09-23T20:43:37.150Z,27.20
2017-09-23T20:46:04.701Z,25.33
2017-09-23T20:48:32.286Z,30.73
2017-09-23T20:50:59.862Z,35.57
2017-09-23T20:53:28.199Z,34.10
2017-09-23T20:55:55.794Z,36.17
2017-09-23T20:58:23.371Z,33.67
2017-09-23T21:00:51.726Z,36.43
2017-09-23T21:03:20.085Z,43.33
2017-09-23T21:05:47.684Z,33.30
2017-09-23T21:08:16.046Z,35.20
2017-09-23T21:10:43.649Z,37.00
2017-09-23T21:13:11.214Z,31.80
2017-09-23T21:15:38.775Z,31.53
2017-09-23T21:18:06.362Z,34.53
2017-09-23T21:20:33.930Z,36.20
2017-09-23T21:23:01.518Z,36.63
2017-09-23T21:25:29.851Z,31.97
2017-09-23T21:27:57.408Z,34.70
2017-09-23T21:30:24.970Z,33.43
2017-09-23T21:32:52.617Z,41.40
2017-09-23T21:35:20.221Z,34.97
2017-09-23T21:37:47.858Z,33.33
2017-09-23T21:40:15.427Z,32.60
2017-09-23T21:42:43.008Z,32.50
2017-09-23T21:45:10.617Z,31.80
2017-09-23T21:47:38.192Z,32.73
2017-09-23T21:50:06.590Z,30.93
2017-09-23T21:52:34.170Z,37.73
2017-09-23T21:55:02.507Z,36.13
2017-09-23T21:57:30.065Z,32.27
2017-09-23T21:59:57.704Z,35.33
2017-09-23T22:02:25.333Z,37.90
2017-09-23T22:04:53.667Z,36.90
2017-09-23T22:07:21.239Z,41.87
2017-09-23T22:09:48.812Z,32.73
2017-09-23T22:12:17.290Z,35.37
2017-09-23T22:14:44.857Z,33.80
2017-09-23T22:17:12.464Z,32.40
2017-09-23T22:19:40.025Z,35.80
2017-09-23T22:22:07.589Z,33.17
2017-09-23T22:24:35.164Z,36.10
2017-09-23T22:27:02.702Z,33.97
2017-09-23T22:29:30.278Z,31.70
2017-09-23T22:31:57.840Z,29.40
2017-09-23T22:34:25.440Z,31.60
2017-09-23T22:36:53.048Z,29.67
2017-09-23T22:39:20.607Z,32.63
2017-09-23T22:41:48.166Z,33.20
2017-09-23T22:44:15.750Z,34.10
2017-09-23T22:46:43.322Z,35.87
2017-09-23T22:49:10.883Z,36.87
2017-09-23T22:51:38.450Z,34.70
2017-09-23T22:54:06.051Z,36.27
2017-09-23T22:56:33.645Z,38.37
2017-09-23T22:59:01.289Z,39.27
2017-09-23T23:01:28.845Z,42.13
2017-09-23T23:03:56.443Z,72.13
2017-09-23T23:06:23.998Z,55.30
2017-09-23T23:08:51.565Z,53.07
2017-09-23T23:11:19.169Z,52.60
2017-09-23T23:13:47.489Z,45.20
2017-09-23T23:16:15.073Z,40.57
2017-09-23T23:18:42.650Z,43.40
2017-09-23T23:21:10.269Z,37.63
2017-09-23T23:23:37.857Z,39.97
2017-09-23T23:26:05.486Z,38.20
2017-09-23T23:28:33.073Z,35.30
2017-09-23T23:31:00.668Z,42.00
2017-09-23T23:33:28.987Z,40.93
2017-09-23T23:35:56.552Z,39.20
2017-09-23T23:38:24.104Z,39.23
2017-09-23T23:40:51.660Z,46.20
2017-09-23T23:43:19.242Z,45.13
2017-09-23T23:45:46.853Z,42.30
2017-09-23T23:48:15.178Z,42.30
2017-09-23T23:50:42.764Z,42.77
2017-09-23T23:53:10.345Z,41.30
2017-09-23T23:55:38.683Z,46.70
2017-09-23T23:58:06.225Z,42.33
